createdAt,value
2023-03-03T00:45:44.427Z,111.90
2023-03-03T00:49:39.127Z,119.90
2023-03-03T00:53:11.469Z,113.00
2023-03-03T00:56:36.072Z,107.20
2023-03-03T01:00:25.525Z,95.20
2023-03-03T01:04:14.314Z,103.40
2023-03-03T01:07:32.079Z,89.00
2023-03-03T01:11:17.459Z,92.10
2023-03-03T01:14:59.806Z,86.50
2023-03-03T01:18:32.829Z,84.30
2023-03-03T01:22:21.855Z,80.00
2023-03-03T01:26:02.598Z,86.50
2023-03-03T01:29:12.075Z,84.20
2023-03-03T01:32:59.512Z,88.90
2023-03-03T01:36:41.588Z,77.90
2023-03-03T01:40:32.345Z,76.80
2023-03-03T01:44:14.855Z,81.90
2023-03-03T02:06:30.406Z,77.70
2023-03-03T02:09:38.567Z,71.80
2023-03-03T02:13:17.558Z,69.30
2023-03-03T02:16:49.771Z,84.10
2023-03-03T02:20:07.205Z,90.20
2023-03-03T02:24:09.484Z,75.50
2023-03-03T03:24:06.993Z,44.30
2023-03-03T03:33:44.769Z,41.00
2023-03-03T03:36:32.136Z,45.40
2023-03-03T03:39:30.000Z,46.40
2023-03-03T03:42:24.532Z,51.10
2023-03-03T03:45:10.489Z,46.80
2023-03-03T03:48:22.091Z,43.30
2023-03-03T03:51:33.976Z,49.40
2023-03-03T03:54:23.025Z,48.00
2023-03-03T03:57:48.147Z,48.70
2023-03-03T04:00:49.454Z,56.80
2023-03-03T04:04:29.682Z,53.10
2023-03-03T04:07:26.907Z,51.70
2023-03-03T04:10:48.683Z,53.50
2023-03-03T04:14:17.844Z,52.70
2023-03-03T04:17:31.294Z,50.80
2023-03-03T04:20:39.963Z,47.40
2023-03-03T04:24:20.010Z,55.40
2023-03-03T04:29:29.367Z,63.60
2023-03-03T04:32:33.019Z,73.10
2023-03-03T04:35:56.422Z,124.20
2023-03-03T04:39:36.745Z,102.40
2023-03-03T04:45:48.271Z,76.40
2023-03-03T04:48:57.096Z,74.20
2023-03-03T04:51:59.941Z,66.00
2023-03-03T04:55:36.765Z,75.10
2023-03-03T04:58:51.189Z,77.50
2023-03-03T05:01:53.428Z,79.10
2023-03-03T05:05:22.892Z,73.60
2023-03-03T05:08:02.523Z,66.10
2023-03-03T05:11:14.198Z,68.90
2023-03-03T05:14:23.035Z,76.60
2023-03-03T05:17:17.615Z,94.80
2023-03-03T05:20:12.665Z,313.80
2023-03-03T05:23:23.944Z,252.10
2023-03-03T05:26:01.127Z,225.60
2023-03-03T05:28:34.714Z,236.70
2023-03-03T05:31:02.928Z,273.20
2023-03-03T05:33:35.020Z,131.10
2023-03-03T05:36:27.532Z,96.20
2023-03-03T05:39:18.987Z,119.60
2023-03-03T05:41:47.386Z,148.90
2023-03-03T05:44:45.968Z,160.90
2023-03-03T05:47:45.454Z,158.50
2023-03-03T05:50:34.746Z,160.20
2023-03-03T05:53:29.288Z,107.60
2023-03-03T05:55:59.937Z,95.80
2023-03-03T05:58:46.676Z,99.10
2023-03-03T06:01:58.865Z,101.80
2023-03-03T06:04:47.466Z,100.00
2023-03-03T06:07:30.453Z,133.20
2023-03-03T06:10:37.699Z,118.70
2023-03-03T06:13:32.503Z,98.60
2023-03-03T06:16:44.363Z,100.10
2023-03-03T06:19:50.322Z,102.40
2023-03-03T06:22:43.385Z,97.10
2023-03-03T06:25:35.937Z,107.20
2023-03-03T06:28:45.277Z,109.50
2023-03-03T06:31:47.026Z,126.70
2023-03-03T06:34:58.952Z,117.10
2023-03-03T06:37:55.292Z,121.20
2023-03-03T06:40:49.015Z,119.90
2023-03-03T06:44:20.083Z,118.20
2023-03-03T06:46:51.126Z,99.70
2023-03-03T06:49:27.743Z,109.10
2023-03-03T06:52:19.104Z,104.80
2023-03-03T06:55:45.234Z,118.60
2023-03-03T06:58:41.735Z,123.90
2023-03-03T07:01:20.972Z,142.30
2023-03-03T07:04:40.836Z,144.20
2023-03-03T07:07:54.930Z,159.70
2023-03-03T07:10:33.374Z,165.90
2023-03-03T07:13:26.043Z,153.10
2023-03-03T07:16:16.038Z,163.70
2023-03-03T07:19:06.945Z,187.00
2023-03-03T07:22:18.291Z,191.70
2023-03-03T07:25:22.493Z,183.50
2023-03-03T07:28:42.412Z,185.50
2023-03-03T07:31:47.971Z,204.40
2023-03-03T07:35:07.711Z,194.00
2023-03-03T07:38:31.709Z,219.50
2023-03-03T07:41:29.437Z,216.00
2023-03-03T07:44:42.342Z,204.70
2023-03-03T07:47:40.896Z,197.80
2023-03-03T07:50:22.610Z,209.00
2023-03-03T07:53:21.981Z,209.70
2023-03-03T07:56:46.421Z,211.00
2023-03-03T07:59:48.853Z,219.80
2023-03-03T08:03:04.756Z,214.70
2023-03-03T08:09:56.667Z,189.20
2023-03-03T08:12:59.330Z,216.80
2023-03-03T08:16:32.588Z,215.10
2023-03-03T08:19:39.307Z,200.90
2023-03-03T08:22:45.014Z,174.60
2023-03-03T08:25:25.058Z,187.20
2023-03-03T08:28:13.782Z,194.40
2023-03-03T08:31:41.899Z,216.70
2023-03-03T08:34:31.193Z,219.40
2023-03-03T08:37:46.266Z,224.30
2023-03-03T08:40:40.971Z,189.90
2023-03-03T08:43:57.225Z,232.30
2023-03-03T08:47:10.757Z,229.40
2023-03-03T08:50:07.543Z,230.10
2023-03-03T08:53:07.533Z,241.80
2023-03-03T08:55:45.592Z,213.80
2023-03-03T08:58:18.197Z,220.70
2023-03-03T09:01:41.365Z,237.60
2023-03-03T09:04:32.410Z,238.20
2023-03-03T09:08:21.912Z,221.80
2023-03-03T09:11:21.750Z,238.50
2023-03-03T09:14:39.571Z,226.70
2023-03-03T09:17:57.772Z,186.90
2023-03-03T09:21:47.813Z,233.30
2023-03-03T09:24:55.465Z,197.00
2023-03-03T09:28:24.154Z,238.40
2023-03-03T09:31:24.359Z,204.00
2023-03-03T09:34:41.039Z,220.40
2023-03-03T09:38:05.421Z,252.00
2023-03-03T09:41:10.668Z,228.30
2023-03-03T09:48:33.778Z,196.90
2023-03-03T09:56:02.210Z,224.30
2023-03-03T09:58:58.490Z,203.40
2023-03-03T10:01:58.638Z,223.00
2023-03-03T10:05:14.662Z,210.10
2023-03-03T10:09:26.839Z,209.80
2023-03-03T10:16:38.977Z,188.10
2023-03-03T10:20:28.138Z,177.10
2023-03-03T10:23:43.022Z,186.10
2023-03-03T10:27:09.820Z,199.10
2023-03-03T10:31:04.350Z,178.80
2023-03-03T10:34:36.613Z,192.40
2023-03-03T10:38:27.213Z,185.90
2023-03-03T10:42:07.249Z,173.00
2023-03-03T10:45:56.481Z,160.50
2023-03-03T11:23:42.500Z,242.30
2023-03-03T11:30:35.474Z,232.40
2023-03-03T11:34:07.247Z,238.90
2023-03-03T11:36:50.985Z,238.70
2023-03-03T11:39:36.820Z,202.50
2023-03-03T11:43:01.488Z,182.80
2023-03-03T11:47:01.385Z,187.10
2023-03-03T11:51:01.168Z,169.60
2023-03-03T11:55:01.234Z,164.80
2023-03-03T11:58:01.083Z,171.70
2023-03-03T12:00:37.390Z,169.20
2023-03-03T12:03:35.890Z,181.00
2023-03-03T12:07:21.155Z,180.70
2023-03-03T12:11:19.892Z,161.10
2023-03-03T12:14:33.793Z,181.80
2023-03-03T12:17:23.352Z,192.40
2023-03-03T12:20:47.683Z,184.10
2023-03-03T12:24:32.847Z,183.20
2023-03-03T12:28:08.381Z,152.20
2023-03-03T12:35:36.734Z,155.70
2023-03-03T12:39:32.374Z,163.90
2023-03-03T12:43:02.432Z,160.30
2023-03-03T12:46:29.448Z,186.90
2023-03-03T12:50:11.938Z,206.60
2023-03-03T12:53:52.317Z,193.30
2023-03-03T12:57:04.664Z,196.10
2023-03-03T13:01:08.835Z,164.40
2023-03-03T13:04:50.071Z,193.60
2023-03-03T13:08:31.371Z,198.10
2023-03-03T13:12:08.021Z,172.20
2023-03-03T13:15:58.342Z,162.30
2023-03-03T13:19:23.144Z,160.50
2023-03-03T13:50:58.038Z,173.30
2023-03-03T14:13:13.784Z,142.30
2023-03-03T14:16:40.816Z,134.70
2023-03-03T14:20:30.081Z,124.00
2023-03-03T14:23:46.669Z,134.00
2023-03-03T14:56:05.297Z,115.70
2023-03-03T14:59:54.607Z,118.50
2023-03-03T15:02:54.006Z,118.00
2023-03-03T15:06:38.069Z,115.20
2023-03-03T15:09:58.950Z,109.20
2023-03-03T15:12:37.767Z,112.80
2023-03-03T15:15:30.966Z,108.10
2023-03-03T15:18:10.308Z,106.30
2023-03-03T15:21:22.261Z,93.20
2023-03-03T15:24:29.676Z,103.30
2023-03-03T15:27:50.895Z,91.90
2023-03-03T15:31:02.828Z,92.20
2023-03-03T15:34:26.546Z,107.10
2023-03-03T15:37:53.703Z,100.00
2023-03-03T15:41:08.074Z,93.50
2023-03-03T15:44:47.404Z,94.90
2023-03-03T15:48:47.673Z,90.70
2023-03-03T15:52:14.177Z,87.80
2023-03-03T15:55:05.748Z,94.70
2023-03-03T15:57:51.218Z,100.40
2023-03-03T16:00:43.944Z,99.80
2023-03-03T16:03:24.098Z,94.40
2023-03-03T16:06:18.952Z,88.10
2023-03-03T16:09:31.099Z,90.30
2023-03-03T16:12:50.618Z,97.70
2023-03-03T16:16:29.587Z,106.80
2023-03-03T16:20:24.366Z,103.00
2023-03-03T16:23:57.162Z,101.00
2023-03-03T16:28:07.517Z,116.00
2023-03-03T16:54:38.003Z,79.10
2023-03-03T16:58:51.410Z,91.10
2023-03-03T17:02:55.937Z,85.80
2023-03-03T17:06:55.391Z,83.90
2023-03-03T17:10:31.950Z,84.00
2023-03-03T17:22:41.641Z,91.50
2023-03-03T17:26:39.591Z,96.50
2023-03-03T17:30:36.366Z,94.20
2023-03-03T17:34:11.669Z,108.20
2023-03-03T17:37:15.087Z,106.20
2023-03-03T17:40:56.713Z,106.00
2023-03-03T17:56:33.474Z,78.40
2023-03-03T18:00:19.265Z,84.70
2023-03-03T18:04:08.649Z,71.20
2023-03-03T18:07:34.933Z,88.10
2023-03-03T18:11:26.991Z,94.10
2023-03-03T18:15:12.310Z,80.30
2023-03-03T18:18:21.719Z,79.40
2023-03-03T18:22:06.959Z,90.60
2023-03-03T18:25:50.323Z,112.60
2023-03-03T18:56:33.593Z,76.80
2023-03-03T18:59:47.272Z,79.00
2023-03-03T19:10:42.751Z,81.50
2023-03-03T19:13:49.517Z,93.00
2023-03-03T19:17:43.370Z,91.60
2023-03-03T19:20:18.618Z,96.80
2023-03-03T19:23:04.564Z,102.30
2023-03-03T19:26:59.006Z,101.30
2023-03-03T19:31:17.430Z,100.00
2023-03-03T19:34:54.424Z,102.90
2023-03-03T19:38:03.028Z,90.50
2023-03-03T19:41:41.154Z,100.00
2023-03-03T19:45:15.004Z,102.30
2023-03-03T20:04:01.041Z,96.80
2023-03-03T20:07:23.996Z,91.00
2023-03-03T20:11:15.375Z,95.80
2023-03-03T20:14:32.566Z,104.80
2023-03-03T20:18:27.922Z,107.70
2023-03-03T20:25:45.961Z,97.40
2023-03-03T20:29:13.752Z,106.70
2023-03-03T20:32:43.971Z,109.70
2023-03-03T20:36:24.892Z,108.30
2023-03-03T21:14:41.472Z,116.20
2023-03-03T21:18:09.537Z,111.50
2023-03-03T21:22:01.530Z,103.10
2023-03-03T21:25:54.757Z,102.10
2023-03-03T21:29:39.376Z,111.90
2023-03-03T21:33:31.365Z,92.60
2023-03-03T21:37:01.083Z,85.60
2023-03-03T21:52:21.905Z,81.90
2023-03-03T21:55:50.334Z,80.10
2023-03-03T21:59:32.804Z,97.50
2023-03-03T22:02:33.720Z,73.30
2023-03-03T22:05:53.954Z,80.80
2023-03-03T22:09:08.547Z,79.20
2023-03-03T22:12:40.296Z,69.40
2023-03-03T22:16:04.926Z,72.30
2023-03-03T22:19:10.076Z,72.60
2023-03-03T22:22:42.814Z,70.90
2023-03-03T22:26:16.973Z,78.10
2023-03-03T22:29:38.914Z,73.20
2023-03-03T22:32:57.010Z,76.90
2023-03-03T22:35:58.997Z,72.90
2023-03-03T22:39:41.144Z,75.70
2023-03-03T22:43:30.131Z,76.20
2023-03-03T22:47:18.260Z,72.30
2023-03-03T22:50:58.518Z,68.90
2023-03-03T22:54:29.503Z,70.30
2023-03-03T22:58:18.824Z,65.80
2023-03-03T23:02:08.413Z,53.50
2023-03-03T23:05:51.343Z,64.30
2023-03-03T23:09:26.144Z,54.70
2023-03-03T23:16:13.225Z,59.00
2023-03-03T23:19:29.248Z,57.80
